Khanewal Weather



Khanewal's Current Weather

Temprature 14o smoke

smoke

Rain: 0 %

Min Temprature14o
Max Temprature14o
Humidity76
Wind Speed2.1 m/h
Sun Rise06:59:05
Sun Set17:12:35
Current Time: 12-Dec-2019 01:29:34
Lat/Lon: 30.3, 71.93




Khanewal's Geo Location



Khanewal's Weather Forecast

Time Overall Temp Min Temp Max Temp Humidity Wind Speed Rain
12-Dec-2019 (Thu)
02:00:00 overcast clouds 14.270 14.270 16.430 26 2.41 m/h 0 %
05:00:00 overcast clouds 14.530 14.530 16.150 28 5.09 m/h 0 %
08:00:00 light rain 11.900 11.900 12.980 85 4.85 m/h 100 %
11:00:00 moderate rain 12.730 12.730 13.270 80 0.65 m/h 363 %
14:00:00 moderate rain 12.410 12.410 12.410 87 4.51 m/h 369 %
17:00:00 light rain 11.810 11.810 11.810 84 3.92 m/h 175 %
20:00:00 light rain 12.220 12.220 12.220 86 2.58 m/h 56 %
23:00:00 overcast clouds 11.840 11.840 11.840 88 1.29 m/h 0 %
13-Dec-2019 (Fri)
02:00:00 broken clouds 10.680 10.680 10.680 92 1.49 m/h 0 %
05:00:00 scattered clouds 9.970 9.970 9.970 93 1.41 m/h 0 %
08:00:00 few clouds 11.040 11.040 11.040 86 1.07 m/h 0 %
11:00:00 few clouds 15.900 15.900 15.900 60 0.78 m/h 0 %
14:00:00 clear sky 18.220 18.220 18.220 48 1.11 m/h 0 %
17:00:00 clear sky 16.170 16.170 16.170 54 0.74 m/h 0 %
20:00:00 clear sky 14.310 14.310 14.310 62 1.8 m/h 0 %
23:00:00 clear sky 13.460 13.460 13.460 66 2.1 m/h 0 %
14-Dec-2019 (Sat)
02:00:00 clear sky 12.620 12.620 12.620 70 2.82 m/h 0 %
05:00:00 clear sky 11.980 11.980 11.980 73 2.43 m/h 0 %
08:00:00 clear sky 12.640 12.640 12.640 71 2.35 m/h 0 %
11:00:00 clear sky 18.050 18.050 18.050 49 2.77 m/h 0 %
14:00:00 clear sky 19.810 19.810 19.810 40 2.4 m/h 0 %
17:00:00 clear sky 17.490 17.490 17.490 47 1.95 m/h 0 %
20:00:00 broken clouds 15.750 15.750 15.750 52 2.07 m/h 0 %
23:00:00 broken clouds 14.910 14.910 14.910 54 2.39 m/h 0 %
15-Dec-2019 (Sun)
02:00:00 overcast clouds 13.730 13.730 13.730 59 1.45 m/h 0 %
05:00:00 overcast clouds 13.120 13.120 13.120 61 0.85 m/h 0 %
08:00:00 few clouds 13.480 13.480 13.480 59 1.58 m/h 0 %
11:00:00 clear sky 18.470 18.470 18.470 43 2.66 m/h 0 %
14:00:00 clear sky 20.430 20.430 20.430 34 3.04 m/h 0 %
17:00:00 clear sky 17.720 17.720 17.720 40 2.3 m/h 0 %
20:00:00 clear sky 15.440 15.440 15.440 46 1.44 m/h 0 %
23:00:00 clear sky 14.390 14.390 14.390 48 0.14 m/h 0 %
16-Dec-2019 (Mon)
02:00:00 clear sky 13.490 13.490 13.490 51 1.45 m/h 0 %
05:00:00 clear sky 12.250 12.250 12.250 55 1.57 m/h 0 %
08:00:00 clear sky 12.930 12.930 12.930 53 1.17 m/h 0 %
11:00:00 clear sky 18.790 18.790 18.790 36 2.36 m/h 0 %
14:00:00 clear sky 20.910 20.910 20.910 25 3.58 m/h 0 %
17:00:00 clear sky 17.560 17.560 17.560 32 2.05 m/h 0 %
20:00:00 clear sky 14.870 14.870 14.870 36 1.5 m/h 0 %
23:00:00 clear sky 13.860 13.860 13.860 37 1.73 m/h 0 %

Famous Cities (61)